createdAt,value
2023-01-08T00:01:15.653Z,14.97
2023-01-08T00:03:42.114Z,16.23
2023-01-08T00:06:12.480Z,15.87
2023-01-08T00:08:38.983Z,11.48
2023-01-08T00:11:05.588Z,15.53
2023-01-08T00:13:32.065Z,13.70
2023-01-08T00:16:03.082Z,15.30
2023-01-08T00:18:29.739Z,15.90
2023-01-08T00:20:56.126Z,15.87
2023-01-08T00:23:22.483Z,14.37
2023-01-08T00:25:48.828Z,16.07
2023-01-08T00:28:15.234Z,15.13
2023-01-08T00:30:42.289Z,13.87
2023-01-08T00:33:10.021Z,15.53
2023-01-08T00:35:38.972Z,14.40
2023-01-08T00:38:05.802Z,15.23
2023-01-08T00:40:34.516Z,13.90
2023-01-08T00:43:01.429Z,13.50
2023-01-08T00:45:27.856Z,13.90
2023-01-08T00:47:54.333Z,14.20
2023-01-08T00:50:20.943Z,14.20
2023-01-08T00:52:47.371Z,13.93
2023-01-08T00:55:13.699Z,13.33
2023-01-08T00:57:40.567Z,13.00
2023-01-08T01:00:09.856Z,12.30
2023-01-08T01:02:38.748Z,13.13
2023-01-08T01:05:06.261Z,13.17
2023-01-08T01:07:34.290Z,13.40
2023-01-08T01:10:01.032Z,13.47
2023-01-08T01:12:27.512Z,12.60
2023-01-08T01:14:54.081Z,13.10
2023-01-08T01:17:20.359Z,11.90
2023-01-08T01:19:46.721Z,13.37
2023-01-08T01:22:13.023Z,12.93
2023-01-08T01:24:39.568Z,13.47
2023-01-08T01:27:06.051Z,12.77
2023-01-08T01:29:32.525Z,13.07
2023-01-08T01:31:58.995Z,13.57
2023-01-08T01:34:25.369Z,12.97
2023-01-08T01:36:51.843Z,13.13
2023-01-08T01:39:18.192Z,13.83
2023-01-08T01:41:46.118Z,14.27
2023-01-08T01:44:41.761Z,13.53
2023-01-08T01:47:21.050Z,13.77
2023-01-08T01:50:02.978Z,14.03
2023-01-08T01:52:33.079Z,14.97
2023-01-08T01:55:01.027Z,15.48
2023-01-08T01:57:29.772Z,15.00
2023-01-08T01:59:58.334Z,15.87
2023-01-08T02:02:24.876Z,14.77
2023-01-08T02:04:51.586Z,14.20
2023-01-08T02:07:38.568Z,15.30
2023-01-08T02:10:14.377Z,15.27
2023-01-08T02:13:07.591Z,14.83
2023-01-08T02:15:46.823Z,15.30
2023-01-08T02:18:19.586Z,14.00
2023-01-08T02:20:58.858Z,15.57
2023-01-08T02:23:35.282Z,14.57
2023-01-08T02:26:07.505Z,14.50
2023-01-08T02:28:39.999Z,14.27
2023-01-08T02:31:07.586Z,15.93
2023-01-08T02:33:33.975Z,14.00
2023-01-08T02:36:23.904Z,14.60
2023-01-08T02:39:03.221Z,15.43
2023-01-08T02:41:46.977Z,13.33
2023-01-08T02:44:20.506Z,15.47
2023-01-08T02:46:52.135Z,14.03
2023-01-08T02:49:21.386Z,13.10
2023-01-08T02:51:54.455Z,13.23
2023-01-08T02:54:27.404Z,13.37
2023-01-08T02:57:01.011Z,12.30
2023-01-08T02:59:31.458Z,14.17
2023-01-08T03:01:58.624Z,13.05
2023-01-08T03:04:26.262Z,11.67
2023-01-08T03:06:52.860Z,12.00
2023-01-08T03:09:19.578Z,12.93
2023-01-08T03:11:57.643Z,11.20
2023-01-08T03:14:27.481Z,11.97
2023-01-08T03:17:03.164Z,11.43
2023-01-08T03:19:42.785Z,11.63
2023-01-08T03:22:13.255Z,11.63
2023-01-08T03:24:49.704Z,11.27
2023-01-08T03:27:19.888Z,10.93
2023-01-08T03:29:49.716Z,12.45
2023-01-08T03:32:18.794Z,11.77
2023-01-08T03:34:48.545Z,11.67
2023-01-08T03:37:18.050Z,12.00
2023-01-08T03:39:52.432Z,12.43
2023-01-08T03:42:20.265Z,12.97
2023-01-08T03:44:47.171Z,12.37
2023-01-08T03:47:14.814Z,11.77
2023-01-08T03:49:44.586Z,11.67
2023-01-08T03:52:23.198Z,12.10
2023-01-08T03:54:49.624Z,11.47
2023-01-08T03:57:15.990Z,11.33
2023-01-08T03:59:42.360Z,11.37
2023-01-08T04:02:08.956Z,13.27
2023-01-08T04:04:35.789Z,14.13
2023-01-08T04:07:02.222Z,13.53
2023-01-08T04:09:28.892Z,12.43
2023-01-08T04:11:55.347Z,12.73
2023-01-08T04:14:21.772Z,12.57
2023-01-08T04:16:48.090Z,12.83
2023-01-08T04:19:15.139Z,12.00
2023-01-08T04:21:41.521Z,12.77
2023-01-08T04:24:08.023Z,12.80
2023-01-08T04:26:34.517Z,12.20
2023-01-08T04:29:03.280Z,11.93
2023-01-08T04:31:30.220Z,12.00
2023-01-08T04:33:56.648Z,11.13
2023-01-08T04:36:22.993Z,11.60
2023-01-08T04:38:49.528Z,11.70
2023-01-08T04:41:15.946Z,11.60
2023-01-08T04:43:42.320Z,12.50
2023-01-08T04:46:08.744Z,12.03
2023-01-08T04:48:35.660Z,12.43
2023-01-08T04:51:03.727Z,12.07
2023-01-08T04:53:31.279Z,13.83
2023-01-08T04:56:03.333Z,13.07
2023-01-08T04:58:29.852Z,13.33
2023-01-08T05:00:56.543Z,12.40
2023-01-08T05:03:23.064Z,12.33
2023-01-08T05:05:50.026Z,12.93
2023-01-08T05:08:16.435Z,12.90
2023-01-08T05:10:42.921Z,13.40
2023-01-08T05:13:09.275Z,13.93
2023-01-08T05:15:35.649Z,13.93
2023-01-08T05:18:05.634Z,13.47
2023-01-08T05:20:32.871Z,13.80
2023-01-08T05:22:59.246Z,13.97
2023-01-08T05:25:25.798Z,13.93
2023-01-08T05:27:52.818Z,13.48
2023-01-08T05:30:19.288Z,14.10
2023-01-08T05:32:45.759Z,13.77
2023-01-08T05:35:12.326Z,14.03
2023-01-08T05:37:38.750Z,14.67
2023-01-08T05:40:06.080Z,15.27
2023-01-08T05:42:35.287Z,17.23
2023-01-08T05:45:03.993Z,15.13
2023-01-08T05:47:31.614Z,12.27
2023-01-08T05:49:58.052Z,12.93
2023-01-08T05:52:24.790Z,12.50
2023-01-08T05:54:51.149Z,13.33
2023-01-08T05:57:17.711Z,13.30
2023-01-08T05:59:44.057Z,15.90
2023-01-08T06:02:10.567Z,15.97
2023-01-08T06:04:37.178Z,21.10
2023-01-08T06:07:03.694Z,23.60
2023-01-08T06:09:30.191Z,18.63
2023-01-08T06:11:56.476Z,14.23
2023-01-08T06:14:22.802Z,13.38
2023-01-08T06:16:49.135Z,15.95
2023-01-08T06:19:15.450Z,15.60
2023-01-08T06:21:41.840Z,17.05
2023-01-08T06:24:08.406Z,16.30
2023-01-08T06:26:34.764Z,15.43
2023-01-08T06:29:01.329Z,15.33
2023-01-08T06:31:27.734Z,17.02
2023-01-08T06:33:54.371Z,16.33
2023-01-08T06:36:20.918Z,16.20
2023-01-08T06:38:47.432Z,15.57
2023-01-08T06:41:14.056Z,15.67
2023-01-08T06:43:40.915Z,14.50
2023-01-08T06:46:09.198Z,12.40
2023-01-08T06:48:36.427Z,13.07
2023-01-08T06:51:03.923Z,13.20
2023-01-08T06:53:30.888Z,14.00
2023-01-08T06:55:57.347Z,13.47
2023-01-08T06:58:24.486Z,13.27
2023-01-08T07:00:51.159Z,13.60
2023-01-08T07:03:17.642Z,12.47
2023-01-08T07:05:44.152Z,11.57
2023-01-08T07:08:13.724Z,12.07
2023-01-08T07:10:40.284Z,10.30
2023-01-08T07:13:06.668Z,10.67
2023-01-08T07:15:32.968Z,11.80
2023-01-08T07:17:59.273Z,10.95
2023-01-08T07:20:25.614Z,10.35
2023-01-08T07:22:52.066Z,8.70
2023-01-08T07:25:18.637Z,9.55
2023-01-08T07:27:45.255Z,9.32
2023-01-08T07:30:28.196Z,8.60
2023-01-08T07:33:02.006Z,8.68
2023-01-08T07:35:29.183Z,9.95
2023-01-08T07:37:56.601Z,9.38
2023-01-08T07:40:23.148Z,11.00
2023-01-08T07:43:03.949Z,10.68
2023-01-08T07:45:31.445Z,10.55
2023-01-08T07:47:59.256Z,8.95
2023-01-08T07:50:26.534Z,8.80
2023-01-08T07:52:53.133Z,9.57
2023-01-08T07:55:19.471Z,8.07
2023-01-08T07:57:45.840Z,7.78
2023-01-08T08:00:12.629Z,7.03
2023-01-08T08:02:39.092Z,7.22
2023-01-08T08:05:05.747Z,7.45
2023-01-08T08:07:32.291Z,6.93
2023-01-08T08:09:59.295Z,6.35
2023-01-08T08:12:25.695Z,6.00
2023-01-08T08:14:52.169Z,6.78
2023-01-08T08:17:18.532Z,9.88
2023-01-08T08:19:45.084Z,11.88
2023-01-08T08:22:13.272Z,12.43
2023-01-08T08:24:39.711Z,12.18
2023-01-08T08:27:06.110Z,10.27
2023-01-08T08:29:32.739Z,10.90
2023-01-08T08:31:59.417Z,11.57
2023-01-08T08:34:25.826Z,12.63
2023-01-08T08:36:52.505Z,11.98
2023-01-08T08:39:18.879Z,13.10
2023-01-08T08:41:45.347Z,13.32
2023-01-08T08:44:11.624Z,14.70
2023-01-08T08:46:38.159Z,13.32
2023-01-08T08:49:04.526Z,13.80
2023-01-08T08:51:30.892Z,13.30
2023-01-08T08:53:57.227Z,13.77
2023-01-08T08:56:23.489Z,12.95
2023-01-08T08:58:50.027Z,13.48
2023-01-08T09:01:16.557Z,14.05
2023-01-08T09:03:43.069Z,13.95
2023-01-08T09:06:14.273Z,14.82
2023-01-08T09:08:40.936Z,13.32
2023-01-08T09:11:07.359Z,15.48
2023-01-08T09:13:33.787Z,15.23
2023-01-08T09:16:00.699Z,12.90
2023-01-08T09:18:27.288Z,13.70
2023-01-08T09:20:53.658Z,14.77
2023-01-08T09:23:22.068Z,14.40
2023-01-08T09:25:48.385Z,16.00
2023-01-08T09:28:14.754Z,13.75
2023-01-08T09:30:41.269Z,19.60
2023-01-08T09:33:07.625Z,15.73
2023-01-08T09:35:34.342Z,14.63
2023-01-08T09:38:00.919Z,14.23
2023-01-08T09:40:50.616Z,14.68
2023-01-08T09:43:20.692Z,14.25
2023-01-08T09:45:51.520Z,13.70
2023-01-08T09:48:20.164Z,15.27
2023-01-08T09:50:47.996Z,14.25
2023-01-08T09:53:17.743Z,13.02
2023-01-08T09:55:47.976Z,12.77
2023-01-08T09:58:30.169Z,14.55
2023-01-08T10:00:56.988Z,13.45
2023-01-08T10:03:30.144Z,13.20
2023-01-08T10:05:56.607Z,14.80
2023-01-08T10:08:23.263Z,14.30
2023-01-08T10:10:49.698Z,14.85
2023-01-08T10:13:16.443Z,14.95
2023-01-08T10:15:42.793Z,14.85
2023-01-08T10:18:14.267Z,16.80
2023-01-08T10:20:40.789Z,15.45
2023-01-08T10:23:15.943Z,15.13
2023-01-08T10:25:57.615Z,15.57
2023-01-08T10:28:25.796Z,14.20
2023-01-08T10:30:54.194Z,16.35
2023-01-08T10:33:30.712Z,16.40
2023-01-08T10:36:04.918Z,15.23
2023-01-08T10:38:38.031Z,15.32
2023-01-08T10:41:12.605Z,16.63
2023-01-08T10:43:51.995Z,15.07
2023-01-08T10:46:28.228Z,16.60
2023-01-08T10:48:56.941Z,16.95
2023-01-08T10:51:25.910Z,14.90
2023-01-08T10:53:54.019Z,15.88
2023-01-08T10:56:22.038Z,14.65
2023-01-08T10:58:49.186Z,16.25
2023-01-08T11:01:25.098Z,20.23
2023-01-08T11:03:59.860Z,16.95
2023-01-08T11:06:29.262Z,16.75
2023-01-08T11:08:59.714Z,16.67
2023-01-08T11:11:36.894Z,15.60
2023-01-08T11:14:07.020Z,17.73
2023-01-08T11:16:36.676Z,16.08
2023-01-08T11:19:04.474Z,16.63
2023-01-08T11:21:31.852Z,16.45
2023-01-08T11:24:15.021Z,15.25
2023-01-08T11:26:46.776Z,16.10
2023-01-08T11:29:18.077Z,17.15
2023-01-08T11:31:59.788Z,16.65
2023-01-08T11:34:48.205Z,15.77
2023-01-08T11:37:24.796Z,14.70
2023-01-08T11:39:55.594Z,15.90
2023-01-08T11:45:12.273Z,15.82
2023-01-08T11:47:55.461Z,20.08
2023-01-08T11:50:28.447Z,20.27
2023-01-08T11:53:05.244Z,21.60
2023-01-08T11:55:57.415Z,22.85
2023-01-08T11:58:32.834Z,20.20
2023-01-08T12:01:15.918Z,16.40
2023-01-08T12:03:46.949Z,17.15
2023-01-08T12:06:39.305Z,15.05
2023-01-08T12:09:30.818Z,14.40
2023-01-08T12:12:16.814Z,14.35
2023-01-08T12:15:03.053Z,15.20
2023-01-08T12:18:04.376Z,14.35
2023-01-08T12:20:45.815Z,16.13
2023-01-08T12:23:21.544Z,17.30
2023-01-08T12:26:23.725Z,15.40
2023-01-08T12:29:09.390Z,16.85
2023-01-08T12:31:48.673Z,18.17
2023-01-08T12:34:44.649Z,18.60
2023-01-08T12:37:52.099Z,19.73
2023-01-08T12:40:31.056Z,19.55
2023-01-08T12:43:01.433Z,17.83
2023-01-08T12:45:33.107Z,18.08
2023-01-08T12:51:06.760Z,16.48
2023-01-08T12:53:48.049Z,16.35
2023-01-08T12:56:20.101Z,15.98
2023-01-08T12:58:59.274Z,16.50
2023-01-08T13:01:40.511Z,17.48
2023-01-08T13:04:09.940Z,20.75
2023-01-08T13:06:37.028Z,18.60
2023-01-08T13:09:04.483Z,16.65
2023-01-08T13:11:34.553Z,21.27
2023-01-08T13:14:12.548Z,19.83
2023-01-08T13:16:41.143Z,16.92
2023-01-08T13:19:25.227Z,16.40
2023-01-08T13:21:54.813Z,14.77
2023-01-08T13:24:29.227Z,16.05
2023-01-08T13:26:57.131Z,15.52
2023-01-08T13:29:39.221Z,15.73
2023-01-08T13:32:23.247Z,15.73
2023-01-08T13:35:12.428Z,16.35
2023-01-08T13:37:38.915Z,14.60
2023-01-08T13:40:25.674Z,17.33
2023-01-08T13:42:52.291Z,17.25
2023-01-08T13:45:18.778Z,15.75
2023-01-08T13:47:45.250Z,16.08
2023-01-08T13:50:19.411Z,15.68
2023-01-08T13:52:48.811Z,15.40
2023-01-08T13:55:21.030Z,21.75
2023-01-08T13:57:52.066Z,17.13
2023-01-08T14:00:24.734Z,15.23
2023-01-08T14:02:51.526Z,15.35
2023-01-08T14:05:26.224Z,28.73
2023-01-08T14:07:53.234Z,45.03
2023-01-08T14:10:20.727Z,26.25
2023-01-08T14:12:47.938Z,19.95
2023-01-08T14:15:23.245Z,16.40
2023-01-08T14:17:50.473Z,13.63
2023-01-08T14:20:24.570Z,12.98
2023-01-08T14:22:51.189Z,13.55
2023-01-08T14:25:19.781Z,11.90
2023-01-08T14:28:05.076Z,11.65
2023-01-08T14:30:32.836Z,11.57
2023-01-08T14:33:01.618Z,12.40
2023-01-08T14:35:32.581Z,11.68
2023-01-08T14:38:00.824Z,11.75
2023-01-08T14:40:41.198Z,12.80
2023-01-08T14:43:14.586Z,13.02
2023-01-08T14:45:47.609Z,14.02
2023-01-08T14:48:31.344Z,13.07
2023-01-08T14:51:07.320Z,13.07
2023-01-08T14:53:45.940Z,12.98
2023-01-08T14:56:19.689Z,12.82
2023-01-08T14:58:46.892Z,12.38
2023-01-08T15:01:20.957Z,11.55
2023-01-08T15:03:49.197Z,12.13
2023-01-08T15:06:27.391Z,12.30
2023-01-08T15:08:54.064Z,11.18
2023-01-08T15:11:30.166Z,10.40
2023-01-08T15:13:57.883Z,11.88
2023-01-08T15:16:31.439Z,11.05
2023-01-08T15:19:00.652Z,12.43
2023-01-08T15:21:27.542Z,12.40
2023-01-08T15:23:56.842Z,12.70
2023-01-08T15:26:24.411Z,11.88
2023-01-08T15:28:57.236Z,13.10
2023-01-08T15:31:48.445Z,12.65
2023-01-08T15:34:19.686Z,12.73
2023-01-08T15:36:47.646Z,12.18
2023-01-08T15:39:14.385Z,12.07
2023-01-08T15:41:41.027Z,15.25
2023-01-08T15:44:09.693Z,14.48
2023-01-08T15:46:36.554Z,14.35
2023-01-08T15:49:03.707Z,13.82
2023-01-08T15:51:34.035Z,14.40
2023-01-08T15:54:01.677Z,14.77
2023-01-08T15:56:28.520Z,15.30
2023-01-08T15:58:55.077Z,15.63
2023-01-08T16:01:21.867Z,14.80
2023-01-08T16:03:48.635Z,18.42
2023-01-08T16:06:15.286Z,17.55
2023-01-08T16:08:41.807Z,20.58
2023-01-08T16:11:08.373Z,22.58
2023-01-08T16:13:35.007Z,20.63
2023-01-08T16:16:08.307Z,18.88
2023-01-08T16:18:35.038Z,18.60
2023-01-08T16:21:02.167Z,22.27
2023-01-08T16:23:28.610Z,21.77
2023-01-08T16:25:55.248Z,23.10
2023-01-08T16:28:22.011Z,24.88
2023-01-08T16:30:48.363Z,26.50
2023-01-08T16:33:14.659Z,28.00
2023-01-08T16:35:40.978Z,17.67
2023-01-08T16:38:07.485Z,14.23
2023-01-08T16:40:33.967Z,14.43
2023-01-08T16:43:01.182Z,15.50
2023-01-08T16:45:27.914Z,13.73
2023-01-08T16:47:54.465Z,15.00
2023-01-08T16:50:20.804Z,18.42
2023-01-08T16:52:47.462Z,14.90
2023-01-08T16:55:13.796Z,12.43
2023-01-08T16:57:40.397Z,13.43
2023-01-08T17:00:07.249Z,11.93
2023-01-08T17:02:33.701Z,13.45
2023-01-08T17:05:00.510Z,14.77
2023-01-08T17:07:26.985Z,16.95
2023-01-08T17:09:53.428Z,21.73
2023-01-08T17:12:20.165Z,22.00
2023-01-08T17:14:46.621Z,20.33
2023-01-08T17:17:13.210Z,14.88
2023-01-08T17:19:39.613Z,13.25
2023-01-08T17:22:05.952Z,13.13
2023-01-08T17:24:32.379Z,12.73
2023-01-08T17:26:58.931Z,14.55
2023-01-08T17:29:25.520Z,13.43
2023-01-08T17:31:51.857Z,12.77
2023-01-08T17:34:18.216Z,18.38
2023-01-08T17:36:44.588Z,15.68
2023-01-08T17:39:11.990Z,15.82
2023-01-08T17:41:38.891Z,14.40
2023-01-08T17:44:07.133Z,12.90
2023-01-08T17:46:38.882Z,11.82
2023-01-08T17:49:05.694Z,11.50
2023-01-08T17:51:32.243Z,11.52
2023-01-08T17:53:59.242Z,11.05
2023-01-08T17:56:26.207Z,11.68
2023-01-08T17:58:53.341Z,12.52
2023-01-08T18:01:20.182Z,15.75
2023-01-08T18:03:47.118Z,13.85
2023-01-08T18:06:14.007Z,12.05
2023-01-08T18:08:40.982Z,11.98
2023-01-08T18:11:09.272Z,20.08
2023-01-08T18:13:36.262Z,14.55
2023-01-08T18:16:08.119Z,11.68
2023-01-08T18:18:35.826Z,10.45
2023-01-08T18:21:02.616Z,11.35
2023-01-08T18:23:29.391Z,11.57
2023-01-08T18:25:55.945Z,11.77
2023-01-08T18:28:22.341Z,10.73
2023-01-08T18:30:48.964Z,12.57
2023-01-08T18:33:16.052Z,18.42
2023-01-08T18:35:42.498Z,14.75
2023-01-08T18:38:08.952Z,11.90
2023-01-08T18:40:35.984Z,12.23
2023-01-08T18:43:02.579Z,11.18
2023-01-08T18:45:29.004Z,11.55
2023-01-08T18:47:55.556Z,9.18
2023-01-08T18:50:22.068Z,8.80
2023-01-08T18:52:48.538Z,10.02
2023-01-08T18:55:14.932Z,10.57
2023-01-08T18:57:41.327Z,11.43
2023-01-08T19:00:08.829Z,12.70
2023-01-08T19:02:35.393Z,10.43
2023-01-08T19:05:01.853Z,12.27
2023-01-08T19:07:28.321Z,11.68
2023-01-08T19:09:54.842Z,9.27
2023-01-08T19:12:21.492Z,8.38
2023-01-08T19:14:47.856Z,10.65
2023-01-08T19:17:14.336Z,11.75
2023-01-08T19:19:40.865Z,10.45
2023-01-08T19:22:07.435Z,10.02
2023-01-08T19:24:34.908Z,9.35
2023-01-08T19:27:01.505Z,9.93
2023-01-08T19:29:28.731Z,10.95
2023-01-08T19:31:55.626Z,9.75
2023-01-08T19:34:22.177Z,10.30
2023-01-08T19:36:48.510Z,10.15
2023-01-08T19:39:15.073Z,10.95
2023-01-08T19:41:41.808Z,11.65
2023-01-08T19:44:08.682Z,11.10
2023-01-08T19:46:36.977Z,10.43
2023-01-08T19:49:04.714Z,10.65
2023-01-08T19:51:32.888Z,11.23
2023-01-08T19:54:00.042Z,11.75
2023-01-08T19:56:26.922Z,11.98
2023-01-08T19:59:03.528Z,10.38
2023-01-08T20:01:30.874Z,12.35
2023-01-08T20:03:57.326Z,11.02
2023-01-08T20:06:25.845Z,12.57
2023-01-08T20:08:55.988Z,12.27
2023-01-08T20:11:23.833Z,12.98
2023-01-08T20:13:50.663Z,12.70
2023-01-08T20:16:20.873Z,10.82
2023-01-08T20:18:47.763Z,10.35
2023-01-08T20:21:17.051Z,9.57
2023-01-08T20:23:44.996Z,9.70
2023-01-08T20:26:14.207Z,9.75
2023-01-08T20:28:42.580Z,9.43
2023-01-08T20:31:12.174Z,9.32
2023-01-08T20:33:39.071Z,8.93
2023-01-08T20:36:10.359Z,9.15
2023-01-08T20:38:37.007Z,8.80
2023-01-08T20:41:04.857Z,9.50
2023-01-08T20:43:31.567Z,10.68
2023-01-08T20:45:58.141Z,9.85
2023-01-08T20:48:24.658Z,10.95
2023-01-08T20:50:59.001Z,9.65
2023-01-08T20:53:26.430Z,10.98
2023-01-08T20:55:53.588Z,10.20
2023-01-08T20:58:20.324Z,10.90
2023-01-08T21:00:46.982Z,11.23
2023-01-08T21:03:14.279Z,11.70
2023-01-08T21:05:40.613Z,10.40
2023-01-08T21:08:07.675Z,10.50
2023-01-08T21:10:35.071Z,10.98
2023-01-08T21:13:01.639Z,12.13
2023-01-08T21:15:28.116Z,10.15
2023-01-08T21:17:54.563Z,10.80
2023-01-08T21:20:20.959Z,11.30
2023-01-08T21:22:47.326Z,11.00
2023-01-08T21:25:14.028Z,10.95
2023-01-08T21:27:40.387Z,11.90
2023-01-08T21:30:07.507Z,9.98
2023-01-08T21:32:35.786Z,11.18
2023-01-08T21:35:02.165Z,10.10
2023-01-08T21:37:28.663Z,10.48
2023-01-08T21:39:55.125Z,10.80
2023-01-08T21:42:21.663Z,11.30
2023-01-08T21:44:48.092Z,11.32
2023-01-08T21:47:17.137Z,10.27
2023-01-08T21:49:44.757Z,10.40
2023-01-08T21:52:11.104Z,13.07
2023-01-08T21:54:37.540Z,13.55
2023-01-08T21:57:04.032Z,15.50
2023-01-08T21:59:30.594Z,13.82
2023-01-08T22:01:57.196Z,13.68
2023-01-08T22:04:23.815Z,12.05
2023-01-08T22:06:52.236Z,11.98
2023-01-08T22:09:18.835Z,12.40
2023-01-08T22:11:45.795Z,11.60
2023-01-08T22:14:12.835Z,12.73
2023-01-08T22:16:39.263Z,12.85
2023-01-08T22:19:05.680Z,13.55
2023-01-08T22:21:32.096Z,13.93
2023-01-08T22:23:58.647Z,13.38
2023-01-08T22:26:25.315Z,14.07
2023-01-08T22:28:51.730Z,13.65
2023-01-08T22:31:18.220Z,13.15
2023-01-08T22:33:44.610Z,13.15
2023-01-08T22:36:13.547Z,12.55
2023-01-08T22:38:40.497Z,11.63
2023-01-08T22:41:19.015Z,11.43
2023-01-08T22:43:45.909Z,11.13
2023-01-08T22:46:14.741Z,11.98
2023-01-08T22:48:42.504Z,10.48
2023-01-08T22:51:10.184Z,12.98
2023-01-08T22:53:37.422Z,12.05
2023-01-08T22:56:07.023Z,11.13
2023-01-08T22:58:33.452Z,11.05
2023-01-08T23:01:00.226Z,13.68
2023-01-08T23:03:29.216Z,13.80
2023-01-08T23:06:02.715Z,13.75
2023-01-08T23:08:29.233Z,13.25
2023-01-08T23:10:55.875Z,11.40
2023-01-08T23:13:22.399Z,11.90
2023-01-08T23:15:49.119Z,11.43
2023-01-08T23:18:15.783Z,11.73
2023-01-08T23:20:42.534Z,11.73
2023-01-08T23:23:09.178Z,11.50
2023-01-08T23:25:35.708Z,11.65
2023-01-08T23:28:02.542Z,10.25
2023-01-08T23:30:29.119Z,10.38
2023-01-08T23:32:55.818Z,10.32
2023-01-08T23:35:22.259Z,9.07
2023-01-08T23:37:48.790Z,6.78
2023-01-08T23:40:15.532Z,6.70
2023-01-08T23:42:41.961Z,6.20
2023-01-08T23:45:11.177Z,6.30
2023-01-08T23:47:37.822Z,5.82
2023-01-08T23:50:04.644Z,5.80
2023-01-08T23:52:31.243Z,5.85
2023-01-08T23:55:00.182Z,5.38
2023-01-08T23:57:26.915Z,5.25
2023-01-08T23:59:56.332Z,5.22
